Station: Yarram Airport  

  Atmospheric Gas Attenuation - ITU Rec 676-11   ----------------- dB/100km -----------------
Date Time Temp RH % AH g/m3 Dew Point Wind Direction Speed kph Gust kph Barometer mB Rainfall Since 9am 24GHz 47GHz 76GHz 122GHz 134GHz 241GHz
08/05 12:40 16.1 70 9.59 10.6 44 50 1018.5 0 21.6 27.0 42.8 112.5 108.9 375.5
08/05 12:30 16.3 73 10.13 11.5 46 57 1018.5 0 22.7 27.8 44.9 118.1 115.9 399.8
08/05 12:20 15.7 74 9.9 11.1 52 56 1018.4 0 22.3 27.6 44.3 116.4 113.6 391.9
08/05 12:10 15.7 76 10.17 11.5 50 59 1018.4 0 22.8 28.1 45.4 119.4 117.3 404.8
08/05 12:00 15.7 78 10.44 11.9 50 67 1018.4 0 23.4 28.5 46.6 122.4 121.0 417.7
08/05 11:50 16.2 78 10.76 12.4 35 44 1018.7 0 24.1 28.9 47.6 125.3 124.6 430.5
08/05 11:40 15.8 80 10.77 12.4 43 48 1018.6 0 24.1 29.1 47.9 126.0 125.4 433.2
08/05 11:30 15.5 81 10.71 12.3 37 50 1019 0 24.0 29.1 47.8 125.9 125.1 432.1
08/05 11:20 14.6 85 10.64 12.1 37 46 1018.8 0 23.9 29.3 48.1 126.5 125.6 433.6
08/05 11:10 13.6 89 10.47 11.8 43 54 1018.9 0 23.6 29.3 48.0 126.2 124.8 430.8
08/05 11:00 13.7 91 10.78 12.3 48 67 1019.1 0 24.3 29.8 49.3 129.6 129.1 445.8
08/05 10:50 15 79 10.13 11.4 48 69 1018.8 0 22.8 28.3 45.7 120.1 117.9 406.6
08/05 10:40 14 92 11.1 12.7 46 54 1018.9 0 24.9 30.3 50.5 132.8 133.2 460.0
08/05 10:30 14.6 80 10.01 11.2 43 61 1018.8 0 22.6 28.2 45.4 119.4 116.8 402.9
08/05 10:20 15.1 77 9.93 11.1 44 50 1018.5 0 22.4 27.9 44.8 117.7 114.9 396.4
08/05 10:10 15.4 78 10.25 11.6 37 46 1018.6 0 23.0 28.3 45.9 120.8 118.9 410.2
08/05 10:00 15.1 83 10.71 12.2 37 52 1018.8 0 24.0 29.2 48.1 126.5 125.8 434.3
08/05 09:50 14.8 88 11.15 12.8 33 39 1018.7 0 25.0 30.1 50.2 132.0 132.5 457.7
08/05 09:40 13.7 93 11.01 12.6 32 39 1018.7 0 24.8 30.2 50.3 132.3 132.4 457.2
08/05 09:30 14 83 10.01 11.2 41 63 1018.7 0 22.6 28.4 45.8 120.3 117.7 406.0
08/05 09:20 14.5 84 10.45 11.8 33 37 1018.7 0 23.5 29.0 47.3 124.5 123.1 424.8
08/05 09:10 13.6 87 10.24 11.5 32 43 1018.6 0 23.1 28.9 47.0 123.5 121.6 419.4
08/05 09:00 13.7 85 10.07 11.2 28 54 1018.5 0 22.7 28.6 46.2 121.4 119.0 410.5
08/05 08:50 13.9 80 9.59 10.5 22 30 1017.8 3.6 21.7 27.7 44.0 115.6 112.0 386.0
08/05 08:40 13.7 82 9.71 10.7 33 37 1017.6 3.6 22.0 27.9 44.6 117.2 113.9 392.7
08/05 08:30 13.8 84 10.01 11.1 37 50 1017.3 3.6 22.6 28.4 45.8 120.4 117.9 406.6
08/05 08:20 13.8 84 10.01 11.1 39 52 1017 3.6 22.6 28.4 45.8 120.4 117.9 406.5
08/05 08:10 13.5 87 10.18 11.4 35 52 1017.1 3.6 23.0 28.8 46.7 122.8 120.7 416.5
08/05 08:00 13.1 92 10.5 11.8 32 44 1017 3.6 23.7 29.5 48.3 127.1 125.9 434.5
08/05 07:50 13 92 10.43 11.7 28 35 1016.7 3.6 23.6 29.4 48.1 126.4 125.0 431.5
08/05 07:40 12.7 92 10.24 11.4 37 43 1016.5 3.6 23.2 29.1 47.4 124.7 122.8 423.6
08/05 07:30 12.8 95 10.64 12 41 59 1016.5 3.6 24.0 29.8 49.1 129.2 128.4 443.1
08/05 07:20 12.8 95 10.64 12 35 44 1016.5 3.6 24.0 29.8 49.1 129.2 128.4 443.1
08/05 07:10 12.4 95 10.38 11.6 33 43 1016.5 3.6 23.5 29.5 48.2 126.8 125.3 432.3
08/05 07:00 12.3 100 10.86 12.3 39 54 1016.3 3.6 24.5 30.3 50.4 132.6 132.4 457.1
08/05 06:50 12.2 100 10.79 12.2 39 46 1016.1 3.6 24.4 30.2 50.1 131.9 131.5 454.1
08/05 06:40 12.3 100 10.86 12.3 37 48 1016.2 3.6 24.5 30.3 50.4 132.6 132.4 457.1
08/05 06:30 12.6 99 10.95 12.4 43 61 1016.1 3.6 24.7 30.4 50.6 133.1 133.2 459.8
08/05 06:20 13 88 9.98 11.1 41 48 1015.9 3.4 22.6 28.5 46.1 121.2 118.6 408.9
08/05 06:10 13 86 9.75 10.7 46 52 1015.6 3.4 22.1 28.1 45.1 118.5 115.3 397.6
08/05 06:00 12.8 89 9.97 11 39 61 1015.4 3.4 22.6 28.6 46.1 121.3 118.7 409.3
08/05 05:50 12.7 94 10.46 11.8 39 48 1015.4 3.4 23.6 29.5 48.3 127.1 125.8 434.2
08/05 05:40 12.7 99 11.02 12.5 44 52 1015.1 3.4 24.8 30.4 50.8 133.7 133.9 462.4
08/05 05:30 12.7 100 11.13 12.7 43 63 1015.3 3.4 25.1 30.6 51.3 135.0 135.5 468.1
08/05 05:20 13.2 94 10.79 12.3 37 48 1015.4 3.4 24.3 29.9 49.4 130.1 129.7 447.9
08/05 05:10 13.1 95 10.84 12.3 33 43 1015.1 3.4 24.4 30.0 49.7 130.9 130.6 450.9
08/05 05:00 12.9 96 10.82 12.3 35 46 1015.2 3.4 24.4 30.0 49.8 131.0 130.7 451.1
08/05 04:50 12.8 99 11.09 12.6 33 46 1015 3.4 25.0 30.5 51.0 134.3 134.7 465.4
08/05 04:40 12.9 100 11.27 12.9 41 52 1015 3.4 25.4 30.8 51.8 136.3 137.2 474.0
08/05 04:30 12.6 100 11.06 12.6 33 48 1015.1 3.4 24.9 30.5 51.0 134.3 134.7 465.1
08/05 04:20 12.6 100 11.06 12.6 43 52 1014.7 3.4 24.9 30.5 51.0 134.3 134.6 465.0
08/05 04:10 12.8 100 11.2 12.8 28 37 1014.8 3.4 25.2 30.7 51.5 135.6 136.3 470.9
08/05 04:00 13 100 11.34 13 35 48 1014.8 3 25.5 30.9 52.0 136.9 138.0 476.9
08/05 03:50 12.9 100 11.27 12.9 32 37 1014.9 3 25.4 30.8 51.7 136.3 137.2 474.0
08/05 03:40 12.9 100 11.27 12.9 30 37 1014.8 3 25.4 30.8 51.7 136.3 137.2 473.9
08/05 03:30 13 98 11.11 12.7 33 46 1014.6 3 25.0 30.5 50.9 134.2 134.6 465.0
08/05 03:20 12.9 96 10.82 12.3 28 35 1014.6 3 24.4 30.0 49.7 130.9 130.6 450.9
08/05 03:10 12.6 100 11.06 12.6 35 46 1014.7 3 24.9 30.5 51.0 134.3 134.6 465.0
08/05 03:00 12.5 100 11 12.5 41 57 1014.8 3 24.8 30.5 50.8 133.8 133.9 462.5
08/05 02:50 12.5 100 11 12.5 46 56 1014.8 3 24.8 30.5 50.8 133.8 133.9 462.5
08/05 02:40 12.6 100 11.06 12.6 30 35 1014.9 3 24.9 30.5 51.0 134.3 134.7 465.0
08/05 02:30 12.9 100 11.27 12.9 43 63 1014.9 2.8 25.4 30.8 51.7 136.3 137.2 474.0
08/05 02:20 13.1 100 11.41 13.1 33 37 1014.7 2.8 25.7 31.0 52.2 137.6 138.9 479.8
08/05 02:10 12.9 100 11.27 12.9 32 39 1014.7 2.8 25.4 30.8 51.7 136.3 137.2 473.9
08/05 02:00 12.7 100 11.13 12.7 28 39 1014.7 2.8 25.1 30.6 51.2 134.9 135.5 467.9
08/05 01:50 12 100 10.66 12 24 30 1014.8 2.8 24.1 30.0 49.6 130.6 129.8 448.1
08/05 01:40 11.7 100 10.46 11.7 22 28 1014.8 2.6 23.7 29.8 48.9 128.7 127.4 439.7
08/05 01:30 11.7 100 10.46 11.7 24 32 1014.9 2.6 23.7 29.8 48.9 128.7 127.4 439.7
08/05 01:20 11.6 100 10.4 11.6 24 28 1015 2.6 23.6 29.7 48.7 128.2 126.8 437.3
08/05 01:10 11.5 100 10.33 11.5 28 33 1015.1 2.6 23.4 29.6 48.5 127.5 125.9 434.3
08/05 01:00 11.4 100 10.27 11.4 26 37 1015.1 2.4 23.3 29.6 48.3 127.0 125.2 431.9
08/05 00:50 11.4 100 10.27 11.4 30 35 1015.1 2.4 23.3 29.6 48.3 127.0 125.2 431.9
08/05 00:40 11.3 100 10.2 11.3 24 28 1015.3 2.2 23.2 29.5 48.0 126.4 124.4 428.9
08/05 00:30 11.2 100 10.14 11.2 30 39 1015.2 2 23.0 29.4 47.8 125.8 123.7 426.4
08/05 00:20 11.1 100 10.07 11.1 28 30 1015.4 2 22.9 29.3 47.6 125.2 122.8 423.5
08/05 00:10 11 100 10.01 11 30 35 1015.4 2 22.8 29.2 47.4 124.6 122.1 421.0
08/05 00:00 11.2 100 10.14 11.2 32 39 1015.7 2 23.0 29.4 47.9 125.9 123.7 426.6
07/05 23:50 11.1 100 10.07 11.1 33 41 1015.5 1.8 22.9 29.3 47.6 125.2 122.8 423.5
07/05 23:40 11.2 100 10.14 11.2 30 33 1015.7 1.8 23.0 29.4 47.9 125.9 123.7 426.6
07/05 23:30 10.9 100 9.95 10.9 35 48 1015.7 1.6 22.6 29.2 47.2 124.1 121.4 418.6
07/05 23:20 10.8 100 9.89 10.8 35 39 1015.8 1.6 22.5 29.1 47.0 123.6 120.7 416.2
07/05 23:10 10.7 100 9.82 10.7 30 35 1016.1 1.6 22.4 29.0 46.8 123.0 119.9 413.3
07/05 23:00 10.4 100 9.64 10.4 33 43 1016.2 1.6 22.0 28.8 46.2 121.3 117.8 405.8
07/05 22:50 10.2 100 9.52 10.2 35 41 1016.1 1.6 21.7 28.7 45.7 120.2 116.4 400.8
07/05 22:40 10.3 100 9.58 10.3 33 41 1016.6 1.6 21.9 28.8 46.0 120.9 117.1 403.5
07/05 22:30 10.3 100 9.58 10.3 32 44 1016.9 1.4 21.9 28.8 46.0 120.9 117.2 403.6
07/05 22:20 10.1 100 9.46 10.1 30 35 1016.8 1.2 21.6 28.6 45.6 119.8 115.7 398.5
07/05 22:10 10.2 100 9.52 10.2 26 32 1017 1.2 21.7 28.7 45.8 120.4 116.5 401.1
07/05 22:00 10.2 100 9.52 10.2 28 39 1017.1 1.2 21.7 28.7 45.8 120.4 116.5 401.1
07/05 21:50 10.3 100 9.58 10.3 32 39 1017.2 1.2 21.9 28.8 46.0 120.9 117.2 403.7
07/05 21:40 10.6 98 9.57 10.3 28 32 1017.3 1 21.8 28.7 45.8 120.3 116.6 401.6
07/05 21:30 10.5 97 9.41 10 30 44 1017.3 0.8 21.5 28.4 45.2 118.6 114.4 394.1
07/05 21:20 10.5 96 9.31 9.9 30 35 1017.3 0.8 21.3 28.3 44.7 117.5 113.0 389.1
07/05 21:10 10.4 94 9.06 9.5 19 22 1017.5 0.8 20.7 27.9 43.7 114.8 109.6 377.3
07/05 21:00 10.4 91 8.77 9 22 33 1017.4 0.8 20.1 27.4 42.5 111.5 105.6 363.0
07/05 20:50 10.2 91 8.66 8.8 19 24 1017.6 0.8 19.9 27.2 42.1 110.5 104.3 358.6
07/05 20:40 10 91 8.55 8.6 24 28 1017.7 0.8 19.7 27.1 41.8 109.6 103.1 354.2
07/05 20:30 10 91 8.55 8.6 24 32 1017.6 0.8 19.7 27.1 41.8 109.6 103.0 354.2
07/05 20:20 10 91 8.55 8.6 24 28 1018 0.8 19.7 27.1 41.8 109.6 103.1 354.3
07/05 20:10 9.8 92 8.54 8.6 22 26 1018.1 0.8 19.7 27.2 41.8 109.8 103.2 354.8

Last Refresh: 08-May-2026 12:09:21

Bureau of Meteorology